Jarl — SFB6983 — position and weather

sailwx.info

Track history (hours):
 
Tides and Currents Weather Stations Pressure Air Temp Water Temp Dewpoint Dewpoint Depression Visibility Wind Speed Wind Dir Waves Ship Positions

Jarl

Last reported at 2016-Dec-09 10:31 UTC. Time now 2016-Dec-11 00:32 UTC.
Position N 59°21' E 018°08'.

Length 13 m.

Type: Port tender. MMSI: 265671980.

Date/timePositionNaut miles runAvg speedWind from/ knotsBaromVisibWave heightAir tempDewpointWater temp
2016-Dec-09 10:31N 59°21' E 018°08'3 0.6
2016-Dec-09 06:22N 59°20' E 018°13'3 0.1
2016-Dec-08 13:14N 59°21' E 018°08'1 1.3
2016-Dec-08 12:32N 59°20' E 018°09'2 2.3
2016-Dec-08 11:33N 59°19' E 018°06'0 0.5
2016-Dec-08 10:33N 59°19' E 018°06'0 0.0
2016-Dec-08 09:28N 59°19' E 018°06'0 0.1
2016-Dec-08 08:33N 59°19' E 018°06'0 0.0
2016-Dec-08 07:30N 59°19' E 018°06'2 2.0
2016-Dec-08 06:33N 59°20' E 018°09'0 0.0
2016-Dec-07 10:34N 59°21' E 018°08'2 1.8
2016-Dec-07 09:33N 59°19' E 018°06'0 0.0
2016-Dec-07 08:33N 59°19' E 018°06'0 0.0
2016-Dec-07 07:33N 59°19' E 018°06'0 0.0
2016-Dec-07 06:33N 59°19' E 018°06'2 0.1
2016-Dec-06 11:17N 59°20' E 018°08'0 0.2
2016-Dec-06 10:31N 59°21' E 018°08'0 0.4
2016-Dec-06 09:31N 59°21' E 018°08'0 0.0
2016-Dec-06 08:31N 59°21' E 018°08'0 0.4
2016-Dec-06 07:26N 59°20' E 018°08'0 0.0
2016-Dec-06 06:31N 59°20' E 018°08'0 0.0
2016-Dec-05 14:14N 59°21' E 018°08'0 0.4
2016-Dec-05 13:32N 59°21' E 018°08'0 0.1
2016-Dec-05 11:33N 59°21' E 018°08'2 1.9
2016-Dec-05 10:33N 59°19' E 018°06'0 0.1
2016-Dec-05 09:33N 59°19' E 018°06'0 0.1
2016-Dec-05 08:32N 59°19' E 018°06'0 0.1
2016-Dec-05 07:33N 59°19' E 018°06'2 1.8
2016-Dec-05 06:33N 59°20' E 018°09'  
2016-Dec-01 14:31N 59°21' E 018°08'0 0.0
2016-Dec-01 13:28N 59°21' E 018°08'0 0.0
2016-Dec-01 12:31N 59°21' E 018°08'0 0.0
2016-Dec-01 11:04N 59°21' E 018°08'0 0.0
2016-Dec-01 10:31N 59°21' E 018°08'0 0.0
2016-Dec-01 09:22N 59°21' E 018°08'0 0.0
2016-Dec-01 07:28N 59°21' E 018°08'0 0.0
2016-Dec-01 06:31N 59°21' E 018°08'0 0.0
2016-Nov-30 14:28N 59°21' E 018°08'0 0.0
2016-Nov-30 13:28N 59°21' E 018°08'2 2.4
2016-Nov-30 12:33N 59°20' E 018°12'1 0.2
2016-Nov-30 06:31N 59°20' E 018°10'1 0.1
2016-Nov-29 13:03N 59°21' E 018°08'2 3.0
2016-Nov-29 12:33N 59°20' E 018°11'  
Track history (hours):
 
Tides and Currents Weather Stations Pressure Air Temp Water Temp Dewpoint Dewpoint Depression Visibility Wind Speed Wind Dir Waves Ship Positions

Jarl

Last reported at 2016-Dec-09 10:31 UTC. Time now 2016-Dec-11 00:32 UTC.
Position N 59°21' E 018°08'.

Length 13 m.

Type: Port tender. MMSI: 265671980.

Date/timePositionNaut miles runAvg speedWind from/ knotsBaromVisibWave heightAir tempDewpointWater temp
2016-Dec-09 10:31N 59°21' E 018°08'3 0.6
2016-Dec-09 06:22N 59°20' E 018°13'3 0.1
2016-Dec-08 13:14N 59°21' E 018°08'1 1.3
2016-Dec-08 12:32N 59°20' E 018°09'2 2.3
2016-Dec-08 11:33N 59°19' E 018°06'0 0.5
2016-Dec-08 10:33N 59°19' E 018°06'0 0.0
2016-Dec-08 09:28N 59°19' E 018°06'0 0.1
2016-Dec-08 08:33N 59°19' E 018°06'0 0.0
2016-Dec-08 07:30N 59°19' E 018°06'2 2.0
2016-Dec-08 06:33N 59°20' E 018°09'0 0.0
2016-Dec-07 10:34N 59°21' E 018°08'2 1.8
2016-Dec-07 09:33N 59°19' E 018°06'0 0.0
2016-Dec-07 08:33N 59°19' E 018°06'0 0.0
2016-Dec-07 07:33N 59°19' E 018°06'0 0.0
2016-Dec-07 06:33N 59°19' E 018°06'2 0.1
2016-Dec-06 11:17N 59°20' E 018°08'0 0.2
2016-Dec-06 10:31N 59°21' E 018°08'0 0.4
2016-Dec-06 09:31N 59°21' E 018°08'0 0.0
2016-Dec-06 08:31N 59°21' E 018°08'0 0.4
2016-Dec-06 07:26N 59°20' E 018°08'0 0.0
2016-Dec-06 06:31N 59°20' E 018°08'0 0.0
2016-Dec-05 14:14N 59°21' E 018°08'0 0.4
2016-Dec-05 13:32N 59°21' E 018°08'0 0.1
2016-Dec-05 11:33N 59°21' E 018°08'2 1.9
2016-Dec-05 10:33N 59°19' E 018°06'0 0.1
2016-Dec-05 09:33N 59°19' E 018°06'0 0.1
2016-Dec-05 08:32N 59°19' E 018°06'0 0.1
2016-Dec-05 07:33N 59°19' E 018°06'2 1.8
2016-Dec-05 06:33N 59°20' E 018°09'  
2016-Dec-01 14:31N 59°21' E 018°08'0 0.0
2016-Dec-01 13:28N 59°21' E 018°08'0 0.0
2016-Dec-01 12:31N 59°21' E 018°08'0 0.0
2016-Dec-01 11:04N 59°21' E 018°08'0 0.0
2016-Dec-01 10:31N 59°21' E 018°08'0 0.0
2016-Dec-01 09:22N 59°21' E 018°08'0 0.0
2016-Dec-01 07:28N 59°21' E 018°08'0 0.0
2016-Dec-01 06:31N 59°21' E 018°08'0 0.0
2016-Nov-30 14:28N 59°21' E 018°08'0 0.0
2016-Nov-30 13:28N 59°21' E 018°08'2 2.4
2016-Nov-30 12:33N 59°20' E 018°12'1 0.2
2016-Nov-30 06:31N 59°20' E 018°10'1 0.1
2016-Nov-29 13:03N 59°21' E 018°08'2 3.0
2016-Nov-29 12:33N 59°20' E 018°11'  

Dump ship's entire track history